Terminal Aerodrome Forecast
Issued by NWS Chicago, IL

Home | Current Version | Previous Version | Graphics & Text | Print | Product List | Glossary On
Versions: 1 2 3 4 5 6 7 8 9 10 11 12 13 14 15 16 17 18 19 20 21 22 23 24 25 26
581
FTUS43 KLOT 062211 AAC
TAFRFD
TAF AMD
KRFD 062211Z 0622/0718 27013G20KT P6SM SCT015 SCT250
     FM071400 25010G15KT P6SM BKN018=

USA.gov is the U.S. government's official web portal to all federal, state and local government web resources and services.